Meath Environmental Platform

Observations for Trim Market St

Time AQI Temp °C Hum % Pres Pa CO μg/m³ H₂S μg/m³ NO μg/m³ NO₂ μg/m³ O₃ μg/m³ SO₂ μg/m³ PM1 μg/m³ PM2.5 μg/m³ PM10 μg/m³
Monday 13 July 2026
19:24 1 24.2 43 64,894 0 0 0 5.48 28.43 0 0.71 3.29 3.62
19:21 1 24.2 43 64,927 0 0 0 4.59 32.54 0 2.14 4.35 5.16
19:20 1 24.3 42 64,919 0 0 0 4.57 30.44 0 2.14 4.35 4.37
19:19 1 24.3 43 64,935 0 0 0 4.06 31.63 0 1.43 3.82 5.16
19:10 1 24.4 42 64,912 0 0 0 4.76 31.93 0 2.14 4.88 5.94
19:09 1 24.4 42 64,925 0 0 0 5.06 32.7 0 2.14 3.83 5.15
19:08 1 24.4 42 64,948 0 0 0 4.16 31.01 0 1.43 4.35 5.94
19:06 1 24.4 42 64,967 0 0 0 5.67 30.95 0 2.14 4.36 4.36
19:05 1 24.5 42 64,931 0 0 0 5.34 28.71 0 1.43 4.36 5.94
19:04 1 24.4 42 64,952 0 0 0 4.57 31.89 0 0.71 3.83 4.22
19:03 1 24.5 42 64,950 0 0 0 5.05 31.26 0 0.71 4.36 5.94
19:02 1 24.5 42 64,973 0 0 0 4.96 33.98 0 1.43 4.89 5.15
19:01 1 24.5 42 64,975 0 0 0 5.68 34.45 0 1.43 4.37 5.94
19:00 1 24.5 42 65,003 0 0 0 4.38 29.12 0 1.43 3.85 4.23
18:55 1 24.5 42 64,956 0 0 0 5.95 25.89 0 1.43 4.36 5.94
18:53 1 24.5 42 64,917 0 0 0 7.74 29.04 0 1.43 4.36 4.36
18:52 1 24.5 42 64,925 0 0 0 7.05 30.52 0 1.43 4.36 4.8
18:43 1 24.6 42 65,078 0 0 0 5.11 32.13 0 0.71 3.87 4.26
18:40 1 24.6 42 65,105 0 0 0 7.61 26.44 0 1.43 3.87 4.26
18:39 1 24.6 42 65,109 0 0 0 4.39 28.34 0 0.71 3.34 3.67